sensor_id;sensor_type;location;lat;lon;timestamp;P1;durP1;ratioP1;P2;durP2;ratioP2
43224;SDS011;28834;48.720;9.208;2022-07-24T00:01:24;12.47;;;11.33;;
43224;SDS011;28834;48.720;9.208;2022-07-24T00:03:49;12.63;;;11.53;;
43224;SDS011;28834;48.720;9.208;2022-07-24T00:06:15;12.20;;;11.20;;
43224;SDS011;28834;48.720;9.208;2022-07-24T00:08:40;12.03;;;10.90;;
43224;SDS011;28834;48.720;9.208;2022-07-24T00:11:06;12.97;;;11.87;;
43224;SDS011;28834;48.720;9.208;2022-07-24T00:13:32;12.63;;;11.63;;
43224;SDS011;28834;48.720;9.208;2022-07-24T00:15:57;13.63;;;12.40;;
43224;SDS011;28834;48.720;9.208;2022-07-24T00:18:23;13.50;;;12.40;;
43224;SDS011;28834;48.720;9.208;2022-07-24T00:20:48;13.47;;;12.37;;
43224;SDS011;28834;48.720;9.208;2022-07-24T00:23:14;11.97;;;10.97;;
43224;SDS011;28834;48.720;9.208;2022-07-24T00:25:40;14.37;;;13.07;;
43224;SDS011;28834;48.720;9.208;2022-07-24T00:28:05;12.93;;;11.83;;
43224;SDS011;28834;48.720;9.208;2022-07-24T00:30:31;12.63;;;11.43;;
43224;SDS011;28834;48.720;9.208;2022-07-24T00:32:56;13.87;;;12.63;;
43224;SDS011;28834;48.720;9.208;2022-07-24T00:35:22;12.93;;;11.90;;
43224;SDS011;28834;48.720;9.208;2022-07-24T00:37:48;13.03;;;11.90;;
43224;SDS011;28834;48.720;9.208;2022-07-24T00:40:13;12.57;;;11.53;;
43224;SDS011;28834;48.720;9.208;2022-07-24T00:42:40;14.00;;;12.70;;
43224;SDS011;28834;48.720;9.208;2022-07-24T00:45:07;12.43;;;11.33;;
43224;SDS011;28834;48.720;9.208;2022-07-24T00:47:33;13.20;;;12.10;;
43224;SDS011;28834;48.720;9.208;2022-07-24T00:49:59;12.30;;;11.20;;
43224;SDS011;28834;48.720;9.208;2022-07-24T00:52:25;12.90;;;11.60;;
43224;SDS011;28834;48.720;9.208;2022-07-24T00:54:52;12.13;;;11.17;;
43224;SDS011;28834;48.720;9.208;2022-07-24T00:57:17;14.03;;;12.93;;
43224;SDS011;28834;48.720;9.208;2022-07-24T00:59:43;13.37;;;12.23;;
43224;SDS011;28834;48.720;9.208;2022-07-24T01:02:08;14.03;;;12.77;;
43224;SDS011;28834;48.720;9.208;2022-07-24T01:04:34;14.60;;;13.50;;
43224;SDS011;28834;48.720;9.208;2022-07-24T01:07:00;14.30;;;13.10;;
43224;SDS011;28834;48.720;9.208;2022-07-24T01:09:25;14.00;;;12.80;;
43224;SDS011;28834;48.720;9.208;2022-07-24T01:11:51;13.70;;;12.50;;
43224;SDS011;28834;48.720;9.208;2022-07-24T01:14:18;13.57;;;12.40;;
43224;SDS011;28834;48.720;9.208;2022-07-24T01:16:44;14.60;;;13.40;;
43224;SDS011;28834;48.720;9.208;2022-07-24T01:19:09;13.40;;;12.30;;
43224;SDS011;28834;48.720;9.208;2022-07-24T01:21:35;13.20;;;12.00;;
43224;SDS011;28834;48.720;9.208;2022-07-24T01:24:01;13.70;;;12.60;;
43224;SDS011;28834;48.720;9.208;2022-07-24T01:26:26;13.80;;;12.57;;
43224;SDS011;28834;48.720;9.208;2022-07-24T01:28:52;13.13;;;12.03;;
43224;SDS011;28834;48.720;9.208;2022-07-24T01:31:18;13.77;;;12.50;;
43224;SDS011;28834;48.720;9.208;2022-07-24T01:33:44;12.97;;;11.83;;
43224;SDS011;28834;48.720;9.208;2022-07-24T01:36:09;13.10;;;12.00;;
43224;SDS011;28834;48.720;9.208;2022-07-24T01:38:35;14.13;;;12.93;;
43224;SDS011;28834;48.720;9.208;2022-07-24T01:41:00;13.50;;;12.40;;
43224;SDS011;28834;48.720;9.208;2022-07-24T01:43:26;13.10;;;12.00;;
43224;SDS011;28834;48.720;9.208;2022-07-24T01:45:52;13.23;;;11.90;;
43224;SDS011;28834;48.720;9.208;2022-07-24T01:48:17;12.43;;;11.43;;
43224;SDS011;28834;48.720;9.208;2022-07-24T01:50:43;12.40;;;11.30;;
43224;SDS011;28834;48.720;9.208;2022-07-24T01:53:09;14.33;;;13.00;;
43224;SDS011;28834;48.720;9.208;2022-07-24T01:55:35;13.53;;;12.33;;
43224;SDS011;28834;48.720;9.208;2022-07-24T01:58:00;13.57;;;12.43;;
43224;SDS011;28834;48.720;9.208;2022-07-24T02:00:26;13.20;;;12.00;;
43224;SDS011;28834;48.720;9.208;2022-07-24T02:02:51;13.80;;;12.70;;
43224;SDS011;28834;48.720;9.208;2022-07-24T02:05:17;12.37;;;11.17;;
43224;SDS011;28834;48.720;9.208;2022-07-24T02:07:43;14.67;;;12.97;;
43224;SDS011;28834;48.720;9.208;2022-07-24T02:10:10;14.70;;;13.20;;
43224;SDS011;28834;48.720;9.208;2022-07-24T02:12:37;16.93;;;15.43;;
43224;SDS011;28834;48.720;9.208;2022-07-24T02:15:04;15.70;;;14.40;;
43224;SDS011;28834;48.720;9.208;2022-07-24T02:17:30;19.77;;;15.63;;
43224;SDS011;28834;48.720;9.208;2022-07-24T02:19:55;17.37;;;15.87;;
43224;SDS011;28834;48.720;9.208;2022-07-24T02:22:21;17.13;;;15.63;;
43224;SDS011;28834;48.720;9.208;2022-07-24T02:24:47;17.23;;;15.73;;
43224;SDS011;28834;48.720;9.208;2022-07-24T02:27:12;15.53;;;14.13;;
43224;SDS011;28834;48.720;9.208;2022-07-24T02:29:38;15.73;;;14.33;;
43224;SDS011;28834;48.720;9.208;2022-07-24T02:32:04;14.30;;;13.13;;
43224;SDS011;28834;48.720;9.208;2022-07-24T02:34:30;14.43;;;13.13;;
43224;SDS011;28834;48.720;9.208;2022-07-24T02:36:56;15.47;;;14.07;;
43224;SDS011;28834;48.720;9.208;2022-07-24T02:39:22;15.17;;;13.87;;
43224;SDS011;28834;48.720;9.208;2022-07-24T02:41:47;16.77;;;15.27;;
43224;SDS011;28834;48.720;9.208;2022-07-24T02:44:13;15.47;;;14.20;;
43224;SDS011;28834;48.720;9.208;2022-07-24T02:46:38;15.53;;;14.20;;
43224;SDS011;28834;48.720;9.208;2022-07-24T02:49:04;14.37;;;13.07;;
43224;SDS011;28834;48.720;9.208;2022-07-24T02:51:29;14.47;;;13.27;;
43224;SDS011;28834;48.720;9.208;2022-07-24T02:53:55;15.40;;;14.00;;
43224;SDS011;28834;48.720;9.208;2022-07-24T02:56:20;16.43;;;14.93;;
43224;SDS011;28834;48.720;9.208;2022-07-24T02:58:46;16.93;;;15.33;;
43224;SDS011;28834;48.720;9.208;2022-07-24T03:01:12;15.47;;;14.17;;
43224;SDS011;28834;48.720;9.208;2022-07-24T03:03:37;16.13;;;14.70;;
43224;SDS011;28834;48.720;9.208;2022-07-24T03:06:03;15.40;;;14.10;;
43224;SDS011;28834;48.720;9.208;2022-07-24T03:08:29;17.77;;;16.27;;
43224;SDS011;28834;48.720;9.208;2022-07-24T03:10:55;15.93;;;14.53;;
43224;SDS011;28834;48.720;9.208;2022-07-24T03:13:21;16.47;;;15.07;;
43224;SDS011;28834;48.720;9.208;2022-07-24T03:15:47;16.57;;;15.00;;
43224;SDS011;28834;48.720;9.208;2022-07-24T03:18:12;18.13;;;16.50;;
43224;SDS011;28834;48.720;9.208;2022-07-24T03:20:38;18.17;;;16.57;;
43224;SDS011;28834;48.720;9.208;2022-07-24T03:23:03;17.40;;;15.70;;
43224;SDS011;28834;48.720;9.208;2022-07-24T03:25:29;15.40;;;14.00;;
43224;SDS011;28834;48.720;9.208;2022-07-24T03:27:54;15.47;;;14.17;;
43224;SDS011;28834;48.720;9.208;2022-07-24T03:30:20;17.77;;;16.17;;
43224;SDS011;28834;48.720;9.208;2022-07-24T03:32:46;16.00;;;14.70;;
43224;SDS011;28834;48.720;9.208;2022-07-24T03:35:11;15.00;;;13.70;;
43224;SDS011;28834;48.720;9.208;2022-07-24T03:37:37;15.70;;;14.27;;
43224;SDS011;28834;48.720;9.208;2022-07-24T03:40:03;18.10;;;16.40;;
43224;SDS011;28834;48.720;9.208;2022-07-24T03:42:29;16.37;;;14.97;;
43224;SDS011;28834;48.720;9.208;2022-07-24T03:44:55;17.53;;;15.93;;
43224;SDS011;28834;48.720;9.208;2022-07-24T03:47:20;16.43;;;14.93;;
43224;SDS011;28834;48.720;9.208;2022-07-24T03:49:46;16.10;;;14.70;;
43224;SDS011;28834;48.720;9.208;2022-07-24T03:52:12;14.80;;;13.50;;
43224;SDS011;28834;48.720;9.208;2022-07-24T03:54:37;16.17;;;14.77;;
43224;SDS011;28834;48.720;9.208;2022-07-24T03:57:03;17.20;;;15.40;;
43224;SDS011;28834;48.720;9.208;2022-07-24T03:59:29;16.63;;;15.23;;
43224;SDS011;28834;48.720;9.208;2022-07-24T04:01:54;15.17;;;13.90;;
43224;SDS011;28834;48.720;9.208;2022-07-24T04:04:20;16.33;;;14.67;;
43224;SDS011;28834;48.720;9.208;2022-07-24T04:06:45;15.70;;;14.30;;
43224;SDS011;28834;48.720;9.208;2022-07-24T04:09:11;15.20;;;13.80;;
43224;SDS011;28834;48.720;9.208;2022-07-24T04:11:38;15.30;;;14.00;;
43224;SDS011;28834;48.720;9.208;2022-07-24T04:14:03;14.27;;;13.07;;
43224;SDS011;28834;48.720;9.208;2022-07-24T04:16:29;13.63;;;12.53;;
43224;SDS011;28834;48.720;9.208;2022-07-24T04:18:54;14.83;;;13.47;;
43224;SDS011;28834;48.720;9.208;2022-07-24T04:21:20;16.43;;;14.73;;
43224;SDS011;28834;48.720;9.208;2022-07-24T04:23:46;15.70;;;14.40;;
43224;SDS011;28834;48.720;9.208;2022-07-24T04:26:11;13.93;;;12.67;;
43224;SDS011;28834;48.720;9.208;2022-07-24T04:28:37;16.80;;;15.30;;
43224;SDS011;28834;48.720;9.208;2022-07-24T04:31:03;16.47;;;14.80;;
43224;SDS011;28834;48.720;9.208;2022-07-24T04:33:29;17.17;;;15.63;;
43224;SDS011;28834;48.720;9.208;2022-07-24T04:35:55;16.50;;;15.00;;
43224;SDS011;28834;48.720;9.208;2022-07-24T04:38:20;15.03;;;13.70;;
43224;SDS011;28834;48.720;9.208;2022-07-24T04:40:46;15.90;;;14.30;;
43224;SDS011;28834;48.720;9.208;2022-07-24T04:43:11;16.03;;;14.73;;
43224;SDS011;28834;48.720;9.208;2022-07-24T04:45:37;16.57;;;14.97;;
43224;SDS011;28834;48.720;9.208;2022-07-24T04:48:03;15.80;;;14.50;;
43224;SDS011;28834;48.720;9.208;2022-07-24T04:50:30;16.93;;;15.47;;
43224;SDS011;28834;48.720;9.208;2022-07-24T04:52:56;17.53;;;16.03;;
43224;SDS011;28834;48.720;9.208;2022-07-24T04:55:21;17.73;;;16.23;;
43224;SDS011;28834;48.720;9.208;2022-07-24T04:57:47;17.53;;;15.90;;
43224;SDS011;28834;48.720;9.208;2022-07-24T05:00:13;17.00;;;15.27;;
43224;SDS011;28834;48.720;9.208;2022-07-24T05:02:39;16.53;;;15.13;;
43224;SDS011;28834;48.720;9.208;2022-07-24T05:05:05;15.47;;;14.17;;
43224;SDS011;28834;48.720;9.208;2022-07-24T05:07:31;16.40;;;15.03;;
43224;SDS011;28834;48.720;9.208;2022-07-24T05:09:57;15.87;;;14.47;;
43224;SDS011;28834;48.720;9.208;2022-07-24T05:12:23;16.57;;;15.10;;
43224;SDS011;28834;48.720;9.208;2022-07-24T05:14:49;15.57;;;14.27;;
43224;SDS011;28834;48.720;9.208;2022-07-24T05:17:15;16.40;;;15.00;;
43224;SDS011;28834;48.720;9.208;2022-07-24T05:19:40;17.47;;;15.93;;
43224;SDS011;28834;48.720;9.208;2022-07-24T05:22:06;16.73;;;15.03;;
43224;SDS011;28834;48.720;9.208;2022-07-24T05:24:32;17.37;;;15.87;;
43224;SDS011;28834;48.720;9.208;2022-07-24T05:26:57;18.90;;;17.20;;
43224;SDS011;28834;48.720;9.208;2022-07-24T05:29:23;17.57;;;15.97;;
43224;SDS011;28834;48.720;9.208;2022-07-24T05:31:48;17.17;;;15.67;;
43224;SDS011;28834;48.720;9.208;2022-07-24T05:34:16;17.17;;;15.53;;
43224;SDS011;28834;48.720;9.208;2022-07-24T05:36:42;15.47;;;13.73;;
43224;SDS011;28834;48.720;9.208;2022-07-24T05:39:07;17.00;;;15.43;;
43224;SDS011;28834;48.720;9.208;2022-07-24T05:41:33;14.97;;;13.77;;
43224;SDS011;28834;48.720;9.208;2022-07-24T05:43:59;18.73;;;17.03;;
43224;SDS011;28834;48.720;9.208;2022-07-24T05:46:24;18.13;;;16.43;;
43224;SDS011;28834;48.720;9.208;2022-07-24T05:48:50;18.37;;;16.77;;
43224;SDS011;28834;48.720;9.208;2022-07-24T05:51:15;16.43;;;15.13;;
43224;SDS011;28834;48.720;9.208;2022-07-24T05:53:41;17.73;;;16.23;;
43224;SDS011;28834;48.720;9.208;2022-07-24T05:56:07;18.20;;;16.70;;
43224;SDS011;28834;48.720;9.208;2022-07-24T05:58:32;17.83;;;16.33;;
43224;SDS011;28834;48.720;9.208;2022-07-24T06:00:58;17.87;;;16.27;;
43224;SDS011;28834;48.720;9.208;2022-07-24T06:03:23;15.40;;;13.77;;
43224;SDS011;28834;48.720;9.208;2022-07-24T06:05:49;14.80;;;13.50;;
43224;SDS011;28834;48.720;9.208;2022-07-24T06:08:14;15.73;;;14.40;;
43224;SDS011;28834;48.720;9.208;2022-07-24T06:10:40;13.50;;;12.43;;
43224;SDS011;28834;48.720;9.208;2022-07-24T06:13:06;13.60;;;12.50;;
43224;SDS011;28834;48.720;9.208;2022-07-24T06:15:31;12.67;;;11.67;;
43224;SDS011;28834;48.720;9.208;2022-07-24T06:17:57;12.50;;;11.50;;
43224;SDS011;28834;48.720;9.208;2022-07-24T06:20:22;14.10;;;11.90;;
43224;SDS011;28834;48.720;9.208;2022-07-24T06:22:48;12.53;;;11.60;;
43224;SDS011;28834;48.720;9.208;2022-07-24T06:25:14;12.37;;;11.20;;
43224;SDS011;28834;48.720;9.208;2022-07-24T06:27:42;13.13;;;11.93;;
43224;SDS011;28834;48.720;9.208;2022-07-24T06:30:15;11.63;;;10.53;;
43224;SDS011;28834;48.720;9.208;2022-07-24T06:32:46;10.97;;;9.97;;
43224;SDS011;28834;48.720;9.208;2022-07-24T06:35:12;11.57;;;10.67;;
43224;SDS011;28834;48.720;9.208;2022-07-24T06:37:39;10.63;;;9.67;;
43224;SDS011;28834;48.720;9.208;2022-07-24T06:40:04;10.80;;;9.80;;
43224;SDS011;28834;48.720;9.208;2022-07-24T06:42:31;9.27;;;8.50;;
43224;SDS011;28834;48.720;9.208;2022-07-24T06:44:56;11.37;;;10.47;;
43224;SDS011;28834;48.720;9.208;2022-07-24T06:47:22;11.67;;;10.57;;
43224;SDS011;28834;48.720;9.208;2022-07-24T06:49:48;11.30;;;10.30;;
43224;SDS011;28834;48.720;9.208;2022-07-24T06:52:13;10.87;;;10.07;;
43224;SDS011;28834;48.720;9.208;2022-07-24T06:54:39;10.53;;;9.63;;
43224;SDS011;28834;48.720;9.208;2022-07-24T06:57:06;11.43;;;10.43;;
43224;SDS011;28834;48.720;9.208;2022-07-24T06:59:32;11.13;;;10.20;;
43224;SDS011;28834;48.720;9.208;2022-07-24T07:01:57;11.57;;;10.67;;
43224;SDS011;28834;48.720;9.208;2022-07-24T07:04:23;12.40;;;11.30;;
43224;SDS011;28834;48.720;9.208;2022-07-24T07:06:48;12.50;;;11.10;;
43224;SDS011;28834;48.720;9.208;2022-07-24T07:09:14;10.63;;;9.73;;
43224;SDS011;28834;48.720;9.208;2022-07-24T07:11:40;10.70;;;9.70;;
43224;SDS011;28834;48.720;9.208;2022-07-24T07:14:05;10.77;;;9.70;;
43224;SDS011;28834;48.720;9.208;2022-07-24T07:16:31;12.27;;;11.17;;
43224;SDS011;28834;48.720;9.208;2022-07-24T07:18:57;10.33;;;9.53;;
43224;SDS011;28834;48.720;9.208;2022-07-24T07:21:22;10.47;;;9.67;;
43224;SDS011;28834;48.720;9.208;2022-07-24T07:23:48;9.30;;;8.50;;
43224;SDS011;28834;48.720;9.208;2022-07-24T07:26:13;10.20;;;9.20;;
43224;SDS011;28834;48.720;9.208;2022-07-24T07:28:39;11.27;;;10.37;;
43224;SDS011;28834;48.720;9.208;2022-07-24T07:31:04;10.20;;;9.40;;
43224;SDS011;28834;48.720;9.208;2022-07-24T07:33:30;10.63;;;9.53;;
43224;SDS011;28834;48.720;9.208;2022-07-24T07:35:56;10.80;;;9.30;;
43224;SDS011;28834;48.720;9.208;2022-07-24T07:38:21;10.55;;;9.52;;
43224;SDS011;28834;48.720;9.208;2022-07-24T07:40:47;9.80;;;8.93;;
43224;SDS011;28834;48.720;9.208;2022-07-24T07:43:12;9.87;;;8.73;;
43224;SDS011;28834;48.720;9.208;2022-07-24T07:45:38;8.57;;;7.82;;
43224;SDS011;28834;48.720;9.208;2022-07-24T07:48:04;8.63;;;7.82;;
43224;SDS011;28834;48.720;9.208;2022-07-24T07:50:30;8.20;;;7.57;;
43224;SDS011;28834;48.720;9.208;2022-07-24T07:52:55;9.27;;;8.48;;
43224;SDS011;28834;48.720;9.208;2022-07-24T07:55:21;8.82;;;8.10;;
43224;SDS011;28834;48.720;9.208;2022-07-24T07:57:47;7.35;;;6.68;;
43224;SDS011;28834;48.720;9.208;2022-07-24T08:00:13;7.88;;;7.18;;
43224;SDS011;28834;48.720;9.208;2022-07-24T08:02:39;8.85;;;6.65;;
43224;SDS011;28834;48.720;9.208;2022-07-24T08:05:05;7.35;;;6.78;;
43224;SDS011;28834;48.720;9.208;2022-07-24T08:07:31;7.53;;;6.85;;
43224;SDS011;28834;48.720;9.208;2022-07-24T08:09:57;7.43;;;6.82;;
43224;SDS011;28834;48.720;9.208;2022-07-24T08:12:23;7.82;;;7.13;;
43224;SDS011;28834;48.720;9.208;2022-07-24T08:14:49;7.57;;;6.85;;
43224;SDS011;28834;48.720;9.208;2022-07-24T08:17:14;7.20;;;6.53;;
43224;SDS011;28834;48.720;9.208;2022-07-24T08:19:40;7.57;;;6.97;;
43224;SDS011;28834;48.720;9.208;2022-07-24T08:22:06;7.35;;;6.78;;
43224;SDS011;28834;48.720;9.208;2022-07-24T08:24:32;7.28;;;6.70;;
43224;SDS011;28834;48.720;9.208;2022-07-24T08:26:58;7.13;;;6.53;;
43224;SDS011;28834;48.720;9.208;2022-07-24T08:29:24;7.93;;;7.13;;
43224;SDS011;28834;48.720;9.208;2022-07-24T08:31:51;7.38;;;6.68;;
43224;SDS011;28834;48.720;9.208;2022-07-24T08:34:17;7.45;;;6.50;;
43224;SDS011;28834;48.720;9.208;2022-07-24T08:36:42;7.43;;;6.82;;
43224;SDS011;28834;48.720;9.208;2022-07-24T08:39:11;7.20;;;6.50;;
43224;SDS011;28834;48.720;9.208;2022-07-24T08:41:37;7.30;;;6.70;;
43224;SDS011;28834;48.720;9.208;2022-07-24T08:44:03;6.82;;;6.30;;
43224;SDS011;28834;48.720;9.208;2022-07-24T08:46:30;6.68;;;6.18;;
43224;SDS011;28834;48.720;9.208;2022-07-24T08:48:57;8.07;;;6.93;;
43224;SDS011;28834;48.720;9.208;2022-07-24T08:51:28;7.65;;;6.82;;
43224;SDS011;28834;48.720;9.208;2022-07-24T08:53:57;7.80;;;7.20;;
43224;SDS011;28834;48.720;9.208;2022-07-24T08:56:23;6.90;;;6.32;;
43224;SDS011;28834;48.720;9.208;2022-07-24T08:58:49;8.50;;;6.80;;
43224;SDS011;28834;48.720;9.208;2022-07-24T09:01:14;6.45;;;5.95;;
43224;SDS011;28834;48.720;9.208;2022-07-24T09:03:44;7.72;;;7.13;;
43224;SDS011;28834;48.720;9.208;2022-07-24T09:06:11;6.70;;;6.20;;
43224;SDS011;28834;48.720;9.208;2022-07-24T09:08:38;8.00;;;7.30;;
43224;SDS011;28834;48.720;9.208;2022-07-24T09:11:05;7.13;;;6.53;;
43224;SDS011;28834;48.720;9.208;2022-07-24T09:13:31;7.13;;;6.43;;
43224;SDS011;28834;48.720;9.208;2022-07-24T09:16:24;6.80;;;6.30;;
43224;SDS011;28834;48.720;9.208;2022-07-24T09:19:04;6.50;;;5.88;;
43224;SDS011;28834;48.720;9.208;2022-07-24T09:21:33;6.30;;;5.85;;
43224;SDS011;28834;48.720;9.208;2022-07-24T09:26:45;7.25;;;6.65;;
43224;SDS011;28834;48.720;9.208;2022-07-24T09:29:16;6.93;;;6.13;;
43224;SDS011;28834;48.720;9.208;2022-07-24T09:32:16;7.28;;;6.68;;
43224;SDS011;28834;48.720;9.208;2022-07-24T09:34:38;7.47;;;6.47;;
43224;SDS011;28834;48.720;9.208;2022-07-24T09:37:05;7.57;;;6.97;;
43224;SDS011;28834;48.720;9.208;2022-07-24T09:39:33;6.97;;;6.32;;
43224;SDS011;28834;48.720;9.208;2022-07-24T09:42:02;6.90;;;6.40;;
43224;SDS011;28834;48.720;9.208;2022-07-24T09:44:30;7.07;;;6.57;;
43224;SDS011;28834;48.720;9.208;2022-07-24T09:47:06;6.72;;;6.03;;
43224;SDS011;28834;48.720;9.208;2022-07-24T09:49:34;7.47;;;6.88;;
43224;SDS011;28834;48.720;9.208;2022-07-24T09:54:45;6.85;;;6.25;;
43224;SDS011;28834;48.720;9.208;2022-07-24T09:57:17;7.35;;;6.65;;
43224;SDS011;28834;48.720;9.208;2022-07-24T09:59:48;6.78;;;6.38;;
43224;SDS011;28834;48.720;9.208;2022-07-24T10:02:14;6.70;;;6.07;;
43224;SDS011;28834;48.720;9.208;2022-07-24T10:04:42;7.13;;;6.53;;
43224;SDS011;28834;48.720;9.208;2022-07-24T10:07:12;7.45;;;6.75;;
43224;SDS011;28834;48.720;9.208;2022-07-24T10:09:46;7.43;;;6.80;;
43224;SDS011;28834;48.720;9.208;2022-07-24T10:12:15;6.93;;;6.35;;
43224;SDS011;28834;48.720;9.208;2022-07-24T10:14:43;7.30;;;6.70;;
43224;SDS011;28834;48.720;9.208;2022-07-24T10:17:11;6.97;;;6.38;;
43224;SDS011;28834;48.720;9.208;2022-07-24T10:19:42;6.80;;;6.30;;
43224;SDS011;28834;48.720;9.208;2022-07-24T10:22:09;5.82;;;5.43;;
43224;SDS011;28834;48.720;9.208;2022-07-24T10:27:31;6.90;;;6.30;;
43224;SDS011;28834;48.720;9.208;2022-07-24T10:30:05;6.63;;;6.13;;
43224;SDS011;28834;48.720;9.208;2022-07-24T10:32:33;7.40;;;6.68;;
43224;SDS011;28834;48.720;9.208;2022-07-24T10:40:42;6.55;;;5.97;;
43224;SDS011;28834;48.720;9.208;2022-07-24T10:43:11;6.47;;;6.03;;
43224;SDS011;28834;48.720;9.208;2022-07-24T10:45:45;7.35;;;6.75;;
43224;SDS011;28834;48.720;9.208;2022-07-24T10:53:22;7.03;;;6.35;;
43224;SDS011;28834;48.720;9.208;2022-07-24T10:55:48;7.05;;;6.55;;
43224;SDS011;28834;48.720;9.208;2022-07-24T10:58:15;7.13;;;6.63;;
43224;SDS011;28834;48.720;9.208;2022-07-24T11:00:45;6.43;;;5.93;;
43224;SDS011;28834;48.720;9.208;2022-07-24T11:08:29;6.13;;;5.72;;
43224;SDS011;28834;48.720;9.208;2022-07-24T11:11:06;6.47;;;5.82;;
43224;SDS011;28834;48.720;9.208;2022-07-24T11:18:36;7.40;;;6.82;;
43224;SDS011;28834;48.720;9.208;2022-07-24T11:21:04;6.93;;;6.32;;
43224;SDS011;28834;48.720;9.208;2022-07-24T11:23:30;7.30;;;6.70;;
43224;SDS011;28834;48.720;9.208;2022-07-24T11:29:42;7.25;;;6.65;;
43224;SDS011;28834;48.720;9.208;2022-07-24T11:31:58;6.80;;;6.30;;
43224;SDS011;28834;48.720;9.208;2022-07-24T11:34:32;6.82;;;6.25;;
43224;SDS011;28834;48.720;9.208;2022-07-24T11:36:59;6.68;;;6.18;;
43224;SDS011;28834;48.720;9.208;2022-07-24T11:39:26;7.05;;;6.45;;
43224;SDS011;28834;48.720;9.208;2022-07-24T11:41:55;7.15;;;6.65;;
43224;SDS011;28834;48.720;9.208;2022-07-24T11:44:29;7.45;;;6.85;;
43224;SDS011;28834;48.720;9.208;2022-07-24T11:46:57;8.50;;;6.68;;
43224;SDS011;28834;48.720;9.208;2022-07-24T11:49:42;6.93;;;6.32;;
43224;SDS011;28834;48.720;9.208;2022-07-24T11:52:23;7.47;;;6.65;;
43224;SDS011;28834;48.720;9.208;2022-07-24T11:54:52;7.18;;;6.68;;
43224;SDS011;28834;48.720;9.208;2022-07-24T11:57:24;6.90;;;6.30;;
43224;SDS011;28834;48.720;9.208;2022-07-24T11:59:51;7.97;;;7.35;;
43224;SDS011;28834;48.720;9.208;2022-07-24T12:02:18;7.22;;;6.63;;
43224;SDS011;28834;48.720;9.208;2022-07-24T12:04:45;6.97;;;6.47;;
43224;SDS011;28834;48.720;9.208;2022-07-24T12:07:30;6.40;;;5.93;;
43224;SDS011;28834;48.720;9.208;2022-07-24T12:09:57;6.75;;;6.15;;
43224;SDS011;28834;48.720;9.208;2022-07-24T12:12:29;6.30;;;5.80;;
43224;SDS011;28834;48.720;9.208;2022-07-24T12:20:30;6.65;;;6.03;;
43224;SDS011;28834;48.720;9.208;2022-07-24T12:23:01;7.55;;;6.85;;
43224;SDS011;28834;48.720;9.208;2022-07-24T12:25:28;7.28;;;6.78;;
43224;SDS011;28834;48.720;9.208;2022-07-24T12:28:05;7.22;;;6.53;;
43224;SDS011;28834;48.720;9.208;2022-07-24T12:30:33;7.38;;;6.68;;
43224;SDS011;28834;48.720;9.208;2022-07-24T12:33:05;6.55;;;5.95;;
43224;SDS011;28834;48.720;9.208;2022-07-24T12:35:55;7.75;;;7.15;;
43224;SDS011;28834;48.720;9.208;2022-07-24T12:38:23;6.47;;;6.03;;
43224;SDS011;28834;48.720;9.208;2022-07-24T12:41:09;6.85;;;6.20;;
43224;SDS011;28834;48.720;9.208;2022-07-24T12:46:16;6.28;;;5.82;;
43224;SDS011;28834;48.720;9.208;2022-07-24T12:54:27;6.47;;;5.97;;
43224;SDS011;28834;48.720;9.208;2022-07-24T12:57:02;6.72;;;6.00;;
43224;SDS011;28834;48.720;9.208;2022-07-24T12:59:35;6.13;;;5.72;;
43224;SDS011;28834;48.720;9.208;2022-07-24T13:02:03;6.70;;;6.28;;
43224;SDS011;28834;48.720;9.208;2022-07-24T13:04:30;6.15;;;5.57;;
43224;SDS011;28834;48.720;9.208;2022-07-24T13:06:59;5.70;;;5.28;;
43224;SDS011;28834;48.720;9.208;2022-07-24T13:09:27;6.45;;;5.90;;
43224;SDS011;28834;48.720;9.208;2022-07-24T13:11:54;6.50;;;5.90;;
43224;SDS011;28834;48.720;9.208;2022-07-24T13:14:22;6.40;;;5.80;;
43224;SDS011;28834;48.720;9.208;2022-07-24T13:16:49;5.90;;;5.47;;
43224;SDS011;28834;48.720;9.208;2022-07-24T13:19:16;6.47;;;5.97;;
43224;SDS011;28834;48.720;9.208;2022-07-24T13:21:43;6.22;;;5.78;;
43224;SDS011;28834;48.720;9.208;2022-07-24T13:24:11;6.75;;;6.25;;
43224;SDS011;28834;48.720;9.208;2022-07-24T13:26:38;5.15;;;4.75;;
43224;SDS011;28834;48.720;9.208;2022-07-24T13:29:05;6.10;;;5.50;;
43224;SDS011;28834;48.720;9.208;2022-07-24T13:31:31;6.97;;;6.28;;
43224;SDS011;28834;48.720;9.208;2022-07-24T13:33:57;5.85;;;5.43;;
43224;SDS011;28834;48.720;9.208;2022-07-24T13:36:22;6.25;;;5.75;;
43224;SDS011;28834;48.720;9.208;2022-07-24T13:38:48;6.85;;;6.25;;
43224;SDS011;28834;48.720;9.208;2022-07-24T13:41:14;5.85;;;5.35;;
43224;SDS011;28834;48.720;9.208;2022-07-24T13:43:43;6.55;;;6.03;;
43224;SDS011;28834;48.720;9.208;2022-07-24T13:46:12;6.95;;;5.55;;
43224;SDS011;28834;48.720;9.208;2022-07-24T13:48:39;6.32;;;5.82;;
43224;SDS011;28834;48.720;9.208;2022-07-24T13:51:04;6.32;;;5.82;;
43224;SDS011;28834;48.720;9.208;2022-07-24T13:53:30;6.18;;;5.70;;
43224;SDS011;28834;48.720;9.208;2022-07-24T13:55:55;5.97;;;5.57;;
43224;SDS011;28834;48.720;9.208;2022-07-24T13:58:21;6.78;;;6.03;;
43224;SDS011;28834;48.720;9.208;2022-07-24T14:00:47;6.25;;;5.75;;
43224;SDS011;28834;48.720;9.208;2022-07-24T14:03:12;7.10;;;6.60;;
43224;SDS011;28834;48.720;9.208;2022-07-24T14:05:38;7.20;;;6.60;;
43224;SDS011;28834;48.720;9.208;2022-07-24T14:08:04;6.50;;;6.00;;
43224;SDS011;28834;48.720;9.208;2022-07-24T14:10:29;6.60;;;6.10;;
43224;SDS011;28834;48.720;9.208;2022-07-24T14:12:55;7.00;;;6.50;;
43224;SDS011;28834;48.720;9.208;2022-07-24T14:15:21;6.78;;;5.97;;
43224;SDS011;28834;48.720;9.208;2022-07-24T14:17:47;6.70;;;6.20;;
43224;SDS011;28834;48.720;9.208;2022-07-24T14:20:13;6.38;;;5.97;;
43224;SDS011;28834;48.720;9.208;2022-07-24T14:22:39;6.13;;;5.72;;
43224;SDS011;28834;48.720;9.208;2022-07-24T14:25:07;6.50;;;5.90;;
43224;SDS011;28834;48.720;9.208;2022-07-24T14:27:34;7.25;;;6.57;;
43224;SDS011;28834;48.720;9.208;2022-07-24T14:30:00;7.07;;;6.47;;
43224;SDS011;28834;48.720;9.208;2022-07-24T14:32:26;6.70;;;6.10;;
43224;SDS011;28834;48.720;9.208;2022-07-24T14:34:52;6.90;;;6.40;;
43224;SDS011;28834;48.720;9.208;2022-07-24T14:37:17;6.47;;;5.97;;
43224;SDS011;28834;48.720;9.208;2022-07-24T14:39:43;6.40;;;5.80;;
43224;SDS011;28834;48.720;9.208;2022-07-24T14:42:09;6.50;;;6.00;;
43224;SDS011;28834;48.720;9.208;2022-07-24T14:44:34;7.15;;;6.25;;
43224;SDS011;28834;48.720;9.208;2022-07-24T14:47:00;6.20;;;5.72;;
43224;SDS011;28834;48.720;9.208;2022-07-24T14:49:27;6.47;;;5.88;;
43224;SDS011;28834;48.720;9.208;2022-07-24T14:51:53;6.97;;;6.32;;
43224;SDS011;28834;48.720;9.208;2022-07-24T14:54:18;6.85;;;6.22;;
43224;SDS011;28834;48.720;9.208;2022-07-24T14:56:44;6.65;;;6.10;;
43224;SDS011;28834;48.720;9.208;2022-07-24T14:59:10;6.03;;;5.53;;
43224;SDS011;28834;48.720;9.208;2022-07-24T15:01:35;6.95;;;6.28;;
43224;SDS011;28834;48.720;9.208;2022-07-24T15:04:01;6.50;;;6.00;;
43224;SDS011;28834;48.720;9.208;2022-07-24T15:06:27;6.50;;;6.00;;
43224;SDS011;28834;48.720;9.208;2022-07-24T15:08:54;6.68;;;5.97;;
43224;SDS011;28834;48.720;9.208;2022-07-24T15:11:20;6.28;;;5.78;;
43224;SDS011;28834;48.720;9.208;2022-07-24T15:13:50;6.50;;;6.10;;
43224;SDS011;28834;48.720;9.208;2022-07-24T15:16:19;6.38;;;5.78;;
43224;SDS011;28834;48.720;9.208;2022-07-24T15:18:45;6.70;;;6.10;;